Time;durP1;ratioP1;P1;durP2;ratioP2;P2;SDS_P1;SDS_P2;PMS_P1;PMS_P2;Temp;Humidity;BMP_temperature;BMP_pressure;BME280_temperature;BME280_humidity;BME280_pressure;Samples;Min_cycle;Max_cycle;Signal;HPM_P1;HPM_P2
2022/09/02 00:01:33;;;;;;;1.60;1.10;;;15.40;97.20;;;;;;5034695;28;20045;-67
2022/09/02 00:04:07;;;;;;;1.30;1.13;;;15.40;97.20;;;;;;5034243;28;20033;-67
2022/09/02 00:06:33;;;;;;;2.05;1.10;;;15.30;97.30;;;;;;5033625;28;20087;-67
2022/09/02 00:09:00;;;;;;;2.28;1.20;;;15.40;97.40;;;;;;5034366;28;20076;-67
2022/09/02 00:11:28;;;;;;;2.15;0.98;;;15.30;97.50;;;;;;5034455;28;20049;-67
2022/09/02 00:13:55;;;;;;;2.65;1.20;;;15.30;97.50;;;;;;5032827;28;20124;-67
2022/09/02 00:16:23;;;;;;;1.42;1.17;;;15.30;97.50;;;;;;5033359;28;20049;-67
2022/09/02 00:18:50;;;;;;;4.85;1.10;;;15.30;97.70;;;;;;5034317;28;20045;-67
2022/09/02 00:21:18;;;;;;;3.22;1.02;;;15.20;97.80;;;;;;5033143;28;20030;-67
2022/09/02 00:23:44;;;;;;;3.65;1.10;;;15.20;97.70;;;;;;5032993;28;20408;-67
2022/09/02 00:26:11;;;;;;;3.75;1.30;;;15.20;97.70;;;;;;5034447;28;20450;-67
2022/09/02 00:28:37;;;;;;;1.77;1.30;;;15.20;97.90;;;;;;5034407;28;20045;-67
2022/09/02 00:31:03;;;;;;;1.65;1.00;;;15.20;97.90;;;;;;5032918;28;20462;-67
2022/09/02 00:33:30;;;;;;;2.47;1.10;;;15.20;98.00;;;;;;5034105;28;20155;-67
2022/09/02 00:35:59;;;;;;;4.85;1.20;;;15.20;98.10;;;;;;5032552;28;20503;-67
2022/09/02 00:38:24;;;;;;;4.88;1.33;;;15.10;98.10;;;;;;5032526;28;20507;-67
2022/09/02 00:40:50;;;;;;;4.80;1.13;;;15.10;98.40;;;;;;5032986;28;20041;-68
2022/09/02 00:43:47;;;;;;;2.40;1.10;;;15.00;98.40;;;;;;5032549;28;20044;-67
2022/09/02 00:46:15;;;;;;;0.98;0.93;;;15.00;98.60;;;;;;5029116;28;20079;-67
2022/09/02 00:48:54;;;;;;;3.40;1.20;;;15.00;98.50;;;;;;5032484;28;20052;-67
2022/09/02 00:51:20;;;;;;;3.08;1.20;;;14.90;98.50;;;;;;5034076;28;20042;-67
2022/09/02 00:53:48;;;;;;;4.72;1.20;;;14.90;98.80;;;;;;5033507;28;20440;-67
2022/09/02 00:56:20;;;;;;;1.10;1.00;;;14.90;98.90;;;;;;5032270;28;20130;-67
2022/09/02 00:58:46;;;;;;;3.97;1.52;;;14.80;99.10;;;;;;5033611;28;20180;-67
2022/09/02 01:01:12;;;;;;;1.58;0.90;;;14.80;99.00;;;;;;5032254;28;20500;-67
2022/09/02 01:03:40;;;;;;;4.07;1.13;;;14.80;99.20;;;;;;5033663;28;20037;-67
2022/09/02 01:06:08;;;;;;;3.58;0.98;;;14.80;99.30;;;;;;5015859;28;20077;-67
2022/09/02 01:08:37;;;;;;;1.05;0.93;;;14.80;99.30;;;;;;5033297;28;20049;-67
2022/09/02 01:11:05;;;;;;;2.42;1.50;;;14.70;99.50;;;;;;5031878;28;20139;-67
2022/09/02 01:13:36;;;;;;;2.53;1.00;;;14.70;99.70;;;;;;5032385;28;20049;-67
2022/09/02 01:16:09;;;;;;;2.92;1.25;;;14.70;99.50;;;;;;5033183;28;20099;-67
2022/09/02 01:18:35;;;;;;;1.73;1.10;;;14.70;99.70;;;;;;5033384;28;20116;-67
2022/09/02 01:21:01;;;;;;;2.60;1.13;;;14.70;99.80;;;;;;5033227;28;20037;-67
2022/09/02 01:23:28;;;;;;;3.15;1.10;;;14.60;99.80;;;;;;5031852;28;20133;-67
2022/09/02 01:25:54;;;;;;;2.58;1.10;;;14.70;99.90;;;;;;5033012;28;20075;-67
2022/09/02 01:28:20;;;;;;;1.73;1.15;;;14.60;99.90;;;;;;5031799;28;20527;-67
2022/09/02 01:30:49;;;;;;;1.65;1.10;;;14.70;99.90;;;;;;5033195;28;20057;-67
2022/09/02 01:33:16;;;;;;;3.95;1.52;;;14.60;99.90;;;;;;5032892;28;20068;-67
2022/09/02 01:35:42;;;;;;;1.45;1.10;;;14.70;99.90;;;;;;5032606;28;20041;-67
2022/09/02 01:38:08;;;;;;;4.30;1.50;;;14.70;99.90;;;;;;5033045;28;20042;-67
2022/09/02 01:40:34;;;;;;;2.80;1.08;;;14.70;99.90;;;;;;5033014;28;20041;-68
2022/09/02 01:43:05;;;;;;;2.20;0.90;;;14.60;99.90;;;;;;5032821;28;20037;-67
2022/09/02 01:45:31;;;;;;;1.20;1.10;;;14.70;99.90;;;;;;5031477;28;20049;-67
2022/09/02 01:47:57;;;;;;;5.78;1.35;;;14.60;99.90;;;;;;5032748;28;20044;-67
2022/09/02 01:50:23;;;;;;;1.65;1.35;;;14.60;99.90;;;;;;5032582;28;20039;-67
2022/09/02 01:52:48;;;;;;;3.60;1.30;;;14.60;99.90;;;;;;5032762;28;20491;-68
2022/09/02 01:55:14;;;;;;;2.05;1.40;;;14.60;99.90;;;;;;5032402;28;20029;-68
2022/09/02 01:57:39;;;;;;;2.08;1.45;;;14.60;99.90;;;;;;5031240;28;20038;-67
2022/09/02 02:00:08;;;;;;;3.88;1.55;;;14.60;99.90;;;;;;5032367;28;20041;-67
2022/09/02 02:02:33;;;;;;;8.18;1.35;;;14.60;99.90;;;;;;5032411;28;20048;-67
2022/09/02 02:04:59;;;;;;;5.45;1.30;;;14.60;99.90;;;;;;5032013;28;20037;-67
2022/09/02 02:07:25;;;;;;;1.63;1.20;;;14.50;99.90;;;;;;5030498;28;20076;-67
2022/09/02 02:09:50;;;;;;;1.40;1.30;;;14.60;99.90;;;;;;5032230;28;20126;-67
2022/09/02 02:12:18;;;;;;;2.97;1.20;;;14.50;99.90;;;;;;5031998;28;20145;-67
2022/09/02 02:14:44;;;;;;;2.38;1.30;;;14.50;99.90;;;;;;5031967;28;20077;-67
2022/09/02 02:17:10;;;;;;;4.15;1.13;;;14.50;99.90;;;;;;5031012;28;20085;-67
2022/09/02 02:19:36;;;;;;;2.00;1.02;;;14.50;99.90;;;;;;5032259;28;20048;-67
2022/09/02 02:22:01;;;;;;;3.35;1.40;;;14.50;99.90;;;;;;5032211;28;20442;-67
2022/09/02 02:24:27;;;;;;;1.98;1.27;;;14.50;99.90;;;;;;5030529;28;20523;-68
2022/09/02 02:26:53;;;;;;;3.65;1.30;;;14.40;99.90;;;;;;5030692;28;20033;-67
2022/09/02 02:29:19;;;;;;;1.45;1.27;;;14.40;99.90;;;;;;5030977;28;20033;-68
2022/09/02 02:31:44;;;;;;;1.67;1.45;;;14.40;99.90;;;;;;5031741;28;20077;-67
2022/09/02 02:34:11;;;;;;;2.53;1.27;;;14.40;99.90;;;;;;5030535;28;20130;-67
2022/09/02 02:36:38;;;;;;;2.30;1.30;;;14.40;99.90;;;;;;5030858;28;20060;-67
2022/09/02 02:39:06;;;;;;;2.03;1.27;;;14.30;99.90;;;;;;5013991;28;20091;-67
2022/09/02 02:41:32;;;;;;;6.53;1.30;;;14.30;99.90;;;;;;5031864;28;20056;-67
2022/09/02 02:43:58;;;;;;;1.30;1.20;;;14.30;99.90;;;;;;5031374;28;20128;-67
2022/09/02 02:46:23;;;;;;;3.78;1.30;;;14.40;99.90;;;;;;5031665;28;20087;-67
2022/09/02 02:48:49;;;;;;;1.80;1.20;;;14.30;99.90;;;;;;5030688;28;20587;-67
2022/09/02 02:51:14;;;;;;;2.65;1.15;;;14.30;99.90;;;;;;5031729;28;20415;-67
2022/09/02 02:53:40;;;;;;;3.55;1.75;;;14.40;99.90;;;;;;5031515;28;20067;-66
2022/09/02 02:56:06;;;;;;;1.88;1.30;;;14.30;99.90;;;;;;5030427;28;20487;-67
2022/09/02 02:58:33;;;;;;;5.50;1.30;;;14.30;99.90;;;;;;5031571;28;20041;-67
2022/09/02 03:00:59;;;;;;;1.58;1.42;;;14.30;99.90;;;;;;5030346;28;20052;-67
2022/09/02 03:03:26;;;;;;;3.05;1.67;;;14.40;99.90;;;;;;5030355;28;20040;-67
2022/09/02 03:05:52;;;;;;;5.15;1.30;;;14.30;99.90;;;;;;5030315;28;20037;-67
2022/09/02 03:08:19;;;;;;;1.52;1.13;;;14.20;99.90;;;;;;5030275;28;20454;-67
2022/09/02 03:10:52;;;;;;;1.10;1.02;;;14.20;99.90;;;;;;5029880;28;20468;-67
2022/09/02 03:13:20;;;;;;;1.20;1.10;;;14.20;99.90;;;;;;5030230;28;20045;-67
2022/09/02 03:15:46;;;;;;;3.42;1.20;;;14.20;99.90;;;;;;5029927;28;20041;-67
2022/09/02 03:18:12;;;;;;;1.75;1.33;;;14.20;99.90;;;;;;5032561;28;20403;-67
2022/09/02 03:20:39;;;;;;;5.13;1.60;;;14.20;99.90;;;;;;5035548;28;20041;-67
2022/09/02 03:23:04;;;;;;;2.25;1.35;;;14.20;99.90;;;;;;5034356;28;20398;-67
2022/09/02 03:25:32;;;;;;;7.00;1.80;;;14.00;99.90;;;;;;5033904;28;20042;-67
2022/09/02 03:27:59;;;;;;;1.70;1.50;;;14.00;99.90;;;;;;5034032;28;20061;-68
2022/09/02 03:30:26;;;;;;;1.70;1.30;;;14.00;99.90;;;;;;5034068;28;20045;-67
2022/09/02 03:32:54;;;;;;;1.55;1.40;;;14.00;99.90;;;;;;5034223;28;20491;-67
2022/09/02 03:35:20;;;;;;;1.75;1.50;;;14.00;99.90;;;;;;5033599;28;20041;-68
2022/09/02 03:37:47;;;;;;;2.13;1.50;;;14.00;99.90;;;;;;5033886;28;20037;-67
2022/09/02 03:40:16;;;;;;;3.80;1.40;;;14.00;99.90;;;;;;5035224;28;20429;-67
2022/09/02 03:42:41;;;;;;;5.43;1.60;;;14.00;99.90;;;;;;5035002;28;20582;-67
2022/09/02 03:45:09;;;;;;;1.52;1.40;;;13.90;99.90;;;;;;5034945;28;20124;-66
2022/09/02 03:47:39;;;;;;;3.55;1.52;;;13.90;99.90;;;;;;5033908;28;20087;-67
2022/09/02 03:50:05;;;;;;;2.95;1.50;;;13.90;99.90;;;;;;5035025;28;20464;-67
2022/09/02 03:52:31;;;;;;;1.88;1.40;;;13.90;99.90;;;;;;5034769;28;20037;-67
2022/09/02 03:54:57;;;;;;;6.43;1.45;;;13.90;99.90;;;;;;5034719;28;20045;-67
2022/09/02 03:57:24;;;;;;;4.03;1.70;;;13.70;99.90;;;;;;5034745;28;20045;-67
2022/09/02 03:59:50;;;;;;;2.35;1.70;;;13.80;99.90;;;;;;5034817;28;20041;-67
2022/09/02 04:02:17;;;;;;;2.75;1.60;;;13.80;99.90;;;;;;5033407;28;20049;-67
2022/09/02 04:04:42;;;;;;;3.55;1.80;;;13.70;99.90;;;;;;5033252;28;20155;-67
2022/09/02 04:07:08;;;;;;;2.30;1.60;;;13.70;99.90;;;;;;5033261;28;20128;-67
2022/09/02 04:09:34;;;;;;;2.25;1.40;;;13.80;99.90;;;;;;5034482;28;20076;-67
2022/09/02 04:11:59;;;;;;;1.90;1.70;;;13.80;99.90;;;;;;5034308;28;20502;-67
2022/09/02 04:14:25;;;;;;;3.15;1.70;;;13.80;99.90;;;;;;5034238;28;20033;-67
2022/09/02 04:16:51;;;;;;;2.88;1.88;;;13.80;99.90;;;;;;5034458;28;20048;-67
2022/09/02 04:19:16;;;;;;;1.85;1.58;;;13.80;99.90;;;;;;5034280;28;20053;-67
2022/09/02 04:21:42;;;;;;;2.03;1.42;;;13.80;99.90;;;;;;5033048;28;20040;-67
2022/09/02 04:24:10;;;;;;;2.60;1.48;;;13.80;99.90;;;;;;5032722;28;20072;-67
2022/09/02 04:26:36;;;;;;;2.17;1.70;;;13.80;99.90;;;;;;5034248;28;20512;-67
2022/09/02 04:29:02;;;;;;;3.22;1.33;;;13.80;99.90;;;;;;5016033;28;20072;-67
2022/09/02 04:31:30;;;;;;;2.30;1.60;;;13.80;99.90;;;;;;5032972;28;20083;-67
2022/09/02 04:33:57;;;;;;;3.58;1.85;;;13.70;99.90;;;;;;5034065;28;20052;-67
2022/09/02 04:36:24;;;;;;;3.03;1.85;;;13.70;99.90;;;;;;5032947;28;20041;-67
2022/09/02 04:38:51;;;;;;;4.95;1.63;;;13.60;99.90;;;;;;5033371;28;20044;-67
2022/09/02 04:41:21;;;;;;;2.83;1.90;;;13.50;99.90;;;;;;5029573;28;20044;-67
2022/09/02 04:43:48;;;;;;;2.63;1.70;;;13.50;99.90;;;;;;5029854;28;20040;-67
2022/09/02 04:46:15;;;;;;;2.33;1.80;;;13.50;99.90;;;;;;5032327;28;20376;-67
2022/09/02 04:48:41;;;;;;;4.70;2.10;;;13.50;99.90;;;;;;5033528;28;20045;-67
2022/09/02 04:51:11;;;;;;;4.00;2.05;;;13.50;99.90;;;;;;5031696;28;20091;-67
2022/09/02 04:53:37;;;;;;;4.32;1.90;;;13.50;99.90;;;;;;5032684;28;20132;-67
2022/09/02 04:56:08;;;;;;;1.83;1.73;;;13.50;99.90;;;;;;5032185;28;20041;-67
2022/09/02 04:58:35;;;;;;;3.88;1.75;;;13.50;99.90;;;;;;5032577;28;20646;-67
2022/09/02 05:01:09;;;;;;;2.22;1.65;;;13.50;99.90;;;;;;5032569;28;20167;-67
2022/09/02 05:03:36;;;;;;;2.78;1.55;;;13.50;99.90;;;;;;5032469;28;20053;-67
2022/09/02 05:06:05;;;;;;;1.98;1.75;;;13.50;99.90;;;;;;5032015;28;20037;-67
2022/09/02 05:08:30;;;;;;;1.75;1.63;;;13.50;99.90;;;;;;5032025;28;20492;-67
2022/09/02 05:10:56;;;;;;;6.28;1.83;;;13.40;99.90;;;;;;5032150;28;20052;-67
2022/09/02 05:13:23;;;;;;;1.98;1.75;;;13.40;99.90;;;;;;5033273;28;20041;-67
2022/09/02 05:15:49;;;;;;;4.25;1.90;;;13.50;99.90;;;;;;5015313;28;20083;-67
2022/09/02 05:18:14;;;;;;;4.43;2.10;;;13.50;99.90;;;;;;5033488;28;20468;-67
2022/09/02 05:20:42;;;;;;;4.03;1.70;;;13.50;99.90;;;;;;5033353;28;20044;-67
2022/09/02 05:23:11;;;;;;;3.00;1.60;;;13.70;99.90;;;;;;5033162;28;20037;-67
2022/09/02 05:25:38;;;;;;;3.47;1.77;;;13.70;99.90;;;;;;5032879;28;20551;-66
2022/09/02 05:28:04;;;;;;;2.67;1.73;;;13.90;99.90;;;;;;5031746;28;20073;-66
2022/09/02 05:30:30;;;;;;;1.98;1.77;;;14.00;99.90;;;;;;5033276;28;20072;-67
2022/09/02 05:32:56;;;;;;;2.90;1.70;;;14.20;99.90;;;;;;5032859;28;20041;-67
2022/09/02 05:35:22;;;;;;;3.78;2.00;;;14.20;99.90;;;;;;5032570;28;20081;-67
2022/09/02 05:37:47;;;;;;;5.97;2.17;;;14.30;99.90;;;;;;5031790;28;20059;-67
2022/09/02 05:40:13;;;;;;;2.17;1.65;;;14.30;99.90;;;;;;5032617;28;20069;-67
2022/09/02 05:42:39;;;;;;;4.50;2.30;;;14.40;99.90;;;;;;5031847;28;20052;-67
2022/09/02 05:45:06;;;;;;;4.88;1.88;;;14.50;99.90;;;;;;5032537;28;20037;-67
2022/09/02 05:47:35;;;;;;;2.90;1.50;;;14.60;99.90;;;;;;5031403;28;20490;-67
2022/09/02 05:50:01;;;;;;;5.93;1.80;;;14.60;99.90;;;;;;5032591;28;20468;-67
2022/09/02 05:52:27;;;;;;;10.50;2.42;;;14.70;99.90;;;;;;5032553;28;20041;-67
2022/09/02 05:54:53;;;;;;;7.38;2.05;;;14.70;99.90;;;;;;5032183;28;20056;-67
2022/09/02 05:57:20;;;;;;;11.25;1.75;;;14.80;99.90;;;;;;5032639;28;20450;-67
2022/09/02 05:59:47;;;;;;;2.67;1.70;;;14.90;99.90;;;;;;5032672;28;20044;-66
2022/09/02 06:02:16;;;;;;;5.50;2.00;;;14.90;99.90;;;;;;5032542;28;20045;-67
2022/09/02 06:04:48;;;;;;;2.70;1.60;;;15.00;99.90;;;;;;5031018;28;20037;-67
2022/09/02 06:07:15;;;;;;;5.57;1.90;;;15.10;99.90;;;;;;5032364;28;20037;-67
2022/09/02 06:09:43;;;;;;;2.72;1.67;;;15.10;99.90;;;;;;5030912;28;20316;-67
2022/09/02 06:12:10;;;;;;;3.80;1.73;;;15.20;99.90;;;;;;5032118;28;20045;-67
2022/09/02 06:14:36;;;;;;;2.40;2.20;;;15.20;99.90;;;;;;5032058;28;20041;-67
2022/09/02 06:17:03;;;;;;;7.10;1.90;;;15.30;99.90;;;;;;5032126;28;20045;-67
2022/09/02 06:19:29;;;;;;;4.30;1.52;;;15.30;99.90;;;;;;5032343;28;20051;-67
2022/09/02 06:21:56;;;;;;;1.58;1.42;;;15.30;99.90;;;;;;5032205;28;20575;-67
2022/09/02 06:24:22;;;;;;;2.55;1.70;;;15.40;99.90;;;;;;5030541;28;20041;-67
2022/09/02 06:26:48;;;;;;;3.83;1.85;;;15.40;99.90;;;;;;5032142;28;20411;-67
2022/09/02 06:29:14;;;;;;;5.15;1.48;;;15.40;99.90;;;;;;5030817;28;20128;-67
2022/09/02 06:31:42;;;;;;;4.60;1.80;;;15.40;99.90;;;;;;5031803;28;20518;-67
2022/09/02 06:34:12;;;;;;;4.20;1.80;;;15.40;99.90;;;;;;5031614;28;20518;-67
2022/09/02 06:36:39;;;;;;;3.45;1.70;;;15.40;99.90;;;;;;5030892;28;20053;-67
2022/09/02 06:39:04;;;;;;;7.47;1.98;;;15.50;99.90;;;;;;5031901;28;20084;-67
2022/09/02 06:41:32;;;;;;;4.95;1.92;;;15.50;99.90;;;;;;5031909;28;20503;-67
2022/09/02 06:44:03;;;;;;;4.68;1.67;;;15.50;99.90;;;;;;5031460;28;20040;-67
2022/09/02 06:46:32;;;;;;;3.55;1.98;;;15.60;99.90;;;;;;5030809;28;20121;-67
2022/09/02 06:48:58;;;;;;;5.28;1.80;;;15.60;99.90;;;;;;5031869;28;20091;-67
2022/09/02 06:51:31;;;;;;;4.90;2.13;;;15.70;99.90;;;;;;5030438;28;20041;-67
2022/09/02 06:53:57;;;;;;;6.20;1.90;;;15.70;99.90;;;;;;5029948;28;20041;-67
2022/09/02 06:56:22;;;;;;;8.05;2.30;;;15.80;99.90;;;;;;5031593;28;20037;-68
2022/09/02 06:58:48;;;;;;;9.35;2.00;;;15.80;99.90;;;;;;5030418;28;20045;-67
2022/09/02 07:01:23;;;;;;;6.57;1.70;;;15.80;99.90;;;;;;5030599;28;20045;-67
2022/09/02 07:06:37;;;;;;;2.50;2.30;;;16.00;99.90;;;;;;5030304;28;20045;-67
2022/09/02 07:09:05;;;;;;;3.28;2.10;;;16.10;99.90;;;;;;5031334;28;20041;-67
2022/09/02 07:11:31;;;;;;;3.33;1.90;;;16.10;99.90;;;;;;5030485;28;20424;-67
2022/09/02 07:14:00;;;;;;;3.03;1.95;;;16.20;99.90;;;;;;5031113;28;20029;-67
2022/09/02 07:16:32;;;;;;;2.40;2.00;;;16.20;99.90;;;;;;5031574;28;20033;-68
2022/09/02 07:19:00;;;;;;;4.90;2.00;;;16.20;99.90;;;;;;5031391;28;20662;-67
2022/09/02 07:21:27;;;;;;;3.30;1.80;;;16.30;99.90;;;;;;5031474;28;20045;-67
2022/09/02 07:23:53;;;;;;;5.07;1.77;;;16.40;99.90;;;;;;5030947;28;20048;-67
2022/09/02 07:26:18;;;;;;;3.25;1.88;;;16.40;99.90;;;;;;5031591;28;20470;-67
2022/09/02 07:28:45;;;;;;;5.35;1.70;;;16.40;99.90;;;;;;5031544;28;20495;-66
2022/09/02 07:31:13;;;;;;;4.53;1.95;;;16.60;99.90;;;;;;5030079;28;20077;-67
2022/09/02 07:33:39;;;;;;;8.18;2.00;;;16.70;99.90;;;;;;5030031;28;20084;-67
2022/09/02 07:36:05;;;;;;;6.00;2.05;;;16.70;99.90;;;;;;5029792;28;20045;-67
2022/09/02 07:38:32;;;;;;;3.05;2.00;;;16.80;99.90;;;;;;5029800;28;20047;-67
2022/09/02 07:40:59;;;;;;;3.78;1.60;;;16.80;99.90;;;;;;5031234;28;20079;-66
2022/09/02 07:43:26;;;;;;;4.72;1.55;;;16.80;99.90;;;;;;5029922;28;20038;-67
2022/09/02 07:45:54;;;;;;;4.57;1.70;;;17.10;99.90;;;;;;5030911;28;20496;-67
2022/09/02 07:48:21;;;;;;;5.07;2.20;;;17.20;99.90;;;;;;5031135;28;20077;-67
2022/09/02 07:50:47;;;;;;;4.22;1.90;;;17.20;99.90;;;;;;5031108;28;20037;-67
2022/09/02 07:53:14;;;;;;;6.18;1.60;;;17.20;99.90;;;;;;5030090;28;20037;-68
2022/09/02 07:55:40;;;;;;;4.57;1.50;;;17.30;99.90;;;;;;5030884;28;20041;-67
2022/09/02 07:58:06;;;;;;;4.88;1.83;;;17.40;99.90;;;;;;5031271;28;20029;-67
2022/09/02 08:00:32;;;;;;;4.72;1.60;;;17.50;99.90;;;;;;5031078;28;20099;-68
2022/09/02 08:02:59;;;;;;;6.80;1.52;;;17.50;99.90;;;;;;5029794;28;20033;-67
2022/09/02 08:05:25;;;;;;;4.40;1.50;;;17.60;99.90;;;;;;5031680;28;20049;-66
2022/09/02 08:07:50;;;;;;;2.67;1.67;;;17.80;99.90;;;;;;5033268;28;20114;-67
2022/09/02 08:10:19;;;;;;;3.78;1.63;;;17.80;99.90;;;;;;5016788;28;20041;-67
2022/09/02 08:12:45;;;;;;;3.10;1.65;;;17.80;99.90;;;;;;5034604;28;20037;-67
2022/09/02 08:15:12;;;;;;;7.30;2.55;;;17.90;99.90;;;;;;5034233;28;20041;-67
2022/09/02 08:17:39;;;;;;;6.65;1.60;;;18.10;99.90;;;;;;5033202;28;20073;-67
2022/09/02 08:20:13;;;;;;;4.53;1.58;;;18.10;99.90;;;;;;5034250;28;20581;-67
2022/09/02 08:22:39;;;;;;;4.32;1.58;;;18.20;99.90;;;;;;5033338;28;20454;-67
2022/09/02 08:25:06;;;;;;;5.85;1.60;;;18.30;99.90;;;;;;5032769;28;20041;-67
2022/09/02 08:27:32;;;;;;;2.28;1.50;;;18.40;99.90;;;;;;5034431;28;20069;-68
2022/09/02 08:29:58;;;;;;;3.60;1.20;;;18.40;99.90;;;;;;5033138;28;20130;-67
2022/09/02 08:32:24;;;;;;;2.97;1.48;;;18.50;99.90;;;;;;5032902;28;20120;-67
2022/09/02 08:34:50;;;;;;;6.22;1.70;;;18.70;99.90;;;;;;5033944;28;20117;-67
2022/09/02 08:37:17;;;;;;;4.45;1.55;;;18.70;99.90;;;;;;5032848;28;20045;-67
2022/09/02 08:39:47;;;;;;;2.45;1.48;;;18.70;99.90;;;;;;5032954;28;20101;-67
2022/09/02 08:42:13;;;;;;;4.97;1.50;;;18.80;99.90;;;;;;5034070;28;20037;-67
2022/09/02 08:44:39;;;;;;;5.22;1.20;;;18.90;99.90;;;;;;5033815;28;20040;-68
2022/09/02 08:47:12;;;;;;;5.10;1.17;;;19.00;99.90;;;;;;5032602;28;20038;-67
2022/09/02 08:49:43;;;;;;;3.35;1.50;;;19.20;99.90;;;;;;5034095;28;20228;-67
2022/09/02 08:52:30;;;;;;;3.50;1.35;;;19.30;99.90;;;;;;5033883;28;20045;-67
2022/09/02 08:54:55;;;;;;;4.32;1.42;;;19.40;99.90;;;;;;5033575;28;20454;-67
2022/09/02 08:57:26;;;;;;;2.20;1.35;;;19.30;99.90;;;;;;5032400;28;20037;-67
2022/09/02 08:59:57;;;;;;;3.38;1.30;;;19.40;99.90;;;;;;5033839;28;20415;-67
2022/09/02 09:02:55;;;;;;;5.63;1.55;;;19.60;99.50;;;;;;5032382;28;20116;-67
2022/09/02 09:05:51;;;;;;;3.35;1.30;;;19.60;99.30;;;;;;5032157;28;20083;-67
2022/09/02 09:08:40;;;;;;;4.63;1.48;;;19.80;98.80;;;;;;5033684;28;20061;-67
2022/09/02 09:11:41;;;;;;;4.97;1.40;;;19.80;98.60;;;;;;5032880;28;20524;-66
2022/09/02 09:14:28;;;;;;;7.57;1.20;;;19.80;98.60;;;;;;5033297;28;20037;-67
2022/09/02 09:16:59;;;;;;;5.60;1.20;;;19.90;98.70;;;;;;5033141;28;20033;-67
2022/09/02 09:19:46;;;;;;;2.15;1.17;;;20.00;98.20;;;;;;5031973;28;20045;-67
2022/09/02 09:22:14;;;;;;;2.47;1.27;;;20.20;98.50;;;;;;5032004;28;20129;-67
2022/09/02 09:24:43;;;;;;;3.28;1.30;;;20.10;97.80;;;;;;5031713;28;20072;-67
2022/09/02 09:27:12;;;;;;;3.85;1.50;;;20.20;98.50;;;;;;5033239;28;20033;-67
2022/09/02 09:29:38;;;;;;;2.92;1.20;;;20.30;97.50;;;;;;5033010;28;20064;-67
2022/09/02 09:32:19;;;;;;;3.97;1.10;;;20.30;98.00;;;;;;5031659;28;20042;-67
2022/09/02 09:35:00;;;;;;;8.30;1.55;;;20.30;97.10;;;;;;5031496;28;20110;-67
2022/09/02 09:37:39;;;;;;;2.92;1.10;;;20.40;97.40;;;;;;5031940;28;20057;-67
2022/09/02 09:40:20;;;;;;;6.30;1.20;;;20.70;96.90;;;;;;5031573;28;20045;-67
2022/09/02 09:42:48;;;;;;;2.08;0.90;;;20.60;96.80;;;;;;5032959;28;20044;-67
2022/09/02 09:45:39;;;;;;;2.55;1.00;;;20.70;96.10;;;;;;5032904;28;20037;-67
2022/09/02 09:48:22;;;;;;;6.70;1.20;;;20.80;96.00;;;;;;5031620;28;20048;-67
2022/09/02 09:50:56;;;;;;;4.82;1.42;;;20.80;95.90;;;;;;5032922;28;20046;-67
2022/09/02 09:53:28;;;;;;;1.00;0.90;;;20.90;95.80;;;;;;5031328;28;20045;-67
2022/09/02 09:56:14;;;;;;;1.67;1.10;;;21.00;96.40;;;;;;5032468;28;20117;-67
2022/09/02 09:58:40;;;;;;;5.82;1.27;;;21.10;94.90;;;;;;5032414;28;20120;-68
2022/09/02 10:01:20;;;;;;;4.25;1.20;;;21.30;94.70;;;;;;5032434;28;20143;-67
2022/09/02 10:03:52;;;;;;;7.35;1.20;;;21.20;95.30;;;;;;5031198;28;20045;-67
2022/09/02 10:06:35;;;;;;;3.75;1.15;;;21.30;93.80;;;;;;5032473;28;20045;-67
2022/09/02 10:09:18;;;;;;;2.60;1.00;;;21.40;93.70;;;;;;5030932;28;20047;-67
2022/09/02 10:11:57;;;;;;;2.58;0.93;;;21.50;94.30;;;;;;5030774;28;20195;-68
2022/09/02 10:14:36;;;;;;;5.82;0.98;;;21.60;94.00;;;;;;5032080;28;20048;-67
2022/09/02 10:17:31;;;;;;;3.97;1.00;;;21.70;93.50;;;;;;5031365;28;20395;-67
2022/09/02 10:20:15;;;;;;;4.22;0.93;;;21.70;92.30;;;;;;5026366;28;20129;-68
2022/09/02 10:23:03;;;;;;;3.58;0.93;;;21.70;92.50;;;;;;5032182;28;20434;-67
2022/09/02 10:25:50;;;;;;;3.35;1.10;;;21.80;92.80;;;;;;5031792;28;20037;-67
2022/09/02 10:28:58;;;;;;;4.63;1.00;;;21.80;93.40;;;;;;5030552;28;20076;-68
2022/09/02 10:31:52;;;;;;;2.42;0.88;;;21.90;91.80;;;;;;4993841;28;20211;-68
2022/09/02 10:34:25;;;;;;;2.75;1.00;;;21.90;92.00;;;;;;5031715;28;20056;-67
2022/09/02 10:37:10;;;;;;;8.88;0.98;;;21.90;92.30;;;;;;5032022;28;20033;-68
2022/09/02 10:40:03;;;;;;;0.80;0.75;;;21.90;91.50;;;;;;5031887;28;20076;-68
2022/09/02 10:43:03;;;;;;;2.85;1.10;;;22.00;91.60;;;;;;5030553;28;20049;-67
2022/09/02 10:45:46;;;;;;;2.13;0.75;;;21.90;91.40;;;;;;5031564;28;20099;-68
2022/09/02 10:48:32;;;;;;;4.03;1.20;;;22.10;91.00;;;;;;5031762;28;20037;-67
2022/09/02 10:51:21;;;;;;;3.65;0.90;;;22.10;91.00;;;;;;5031951;28;20069;-67
2022/09/02 10:54:08;;;;;;;3.92;1.20;;;22.10;91.40;;;;;;5003039;28;20050;-67
2022/09/02 10:56:44;;;;;;;2.33;0.80;;;22.20;90.70;;;;;;5031644;28;20095;-67
2022/09/02 10:59:20;;;;;;;5.22;0.98;;;22.10;90.70;;;;;;5030131;28;20046;-67
2022/09/02 11:01:56;;;;;;;6.10;0.77;;;22.10;90.70;;;;;;5031716;28;20053;-67
2022/09/02 11:04:38;;;;;;;4.82;1.00;;;22.20;90.30;;;;;;5030067;28;20033;-67
2022/09/02 11:07:09;;;;;;;38.03;5.43;;;22.10;90.40;;;;;;5030197;28;20046;-67
2022/09/02 11:10:02;;;;;;;8.65;2.55;;;22.30;91.50;;;;;;5031533;28;20045;-69
2022/09/02 11:12:36;;;;;;;3.03;1.00;;;22.40;91.40;;;;;;5029961;28;20057;-67
2022/09/02 11:15:11;;;;;;;3.45;1.00;;;22.40;90.90;;;;;;5029684;28;20087;-68
2022/09/02 11:17:53;;;;;;;8.00;1.70;;;22.40;90.80;;;;;;5031347;28;20044;-68
2022/09/02 11:20:34;;;;;;;7.30;1.58;;;22.50;90.80;;;;;;5031309;28;20548;-68
2022/09/02 11:23:31;;;;;;;4.30;0.90;;;22.70;91.00;;;;;;5030032;28;20087;-67
2022/09/02 11:26:06;;;;;;;3.72;1.10;;;22.70;90.50;;;;;;5030947;28;20111;-67
2022/09/02 11:28:58;;;;;;;2.67;0.93;;;22.60;91.20;;;;;;5030135;28;20045;-68
2022/09/02 11:31:39;;;;;;;4.85;1.20;;;22.70;90.90;;;;;;5030084;28;20033;-67
2022/09/02 11:34:39;;;;;;;22.67;2.22;;;22.60;90.50;;;;;;5030666;28;20510;-67
2022/09/02 11:37:09;;;;;;;5.43;1.30;;;22.60;90.30;;;;;;5030057;28;20479;-67
2022/09/02 11:39:39;;;;;;;4.95;1.20;;;22.80;90.40;;;;;;5032225;28;20052;-67
2022/09/02 11:42:08;;;;;;;5.85;1.42;;;22.70;90.50;;;;;;5034859;28;20047;-67
2022/09/02 11:45:11;;;;;;;8.80;2.38;;;22.70;90.20;;;;;;5034312;28;20038;-66
2022/09/02 11:48:05;;;;;;;6.30;1.65;;;22.70;90.00;;;;;;5034910;28;20119;-66
2022/09/02 11:50:48;;;;;;;3.75;1.15;;;22.90;90.10;;;;;;5034876;28;20037;-66
2022/09/02 11:53:19;;;;;;;4.07;1.40;;;23.00;89.20;;;;;;5034970;28;20092;-67
2022/09/02 11:56:07;;;;;;;6.70;0.98;;;23.00;89.70;;;;;;5033430;28;20049;-67
2022/09/02 11:58:46;;;;;;;4.97;1.15;;;23.00;89.00;;;;;;5034621;28;20492;-67
2022/09/02 12:01:14;;;;;;;4.63;0.93;;;23.10;89.00;;;;;;5033419;28;20037;-67
2022/09/02 12:03:46;;;;;;;2.88;0.98;;;23.20;88.40;;;;;;5034651;28;20086;-65
2022/09/02 12:06:14;;;;;;;1.65;1.10;;;23.30;88.20;;;;;;5033313;28;20098;-66
2022/09/02 12:08:40;;;;;;;3.30;1.27;;;23.30;88.60;;;;;;5034464;28;20419;-67
2022/09/02 12:11:06;;;;;;;2.03;1.10;;;23.40;87.90;;;;;;5032642;28;20048;-66
2022/09/02 12:13:42;;;;;;;2.72;1.15;;;23.30;87.90;;;;;;5033544;28;20038;-67
2022/09/02 12:16:31;;;;;;;3.47;1.10;;;23.30;88.40;;;;;;5033129;28;20046;-67
2022/09/02 12:18:57;;;;;;;1.60;0.80;;;23.40;85.50;;;;;;5034297;28;20037;-67
2022/09/02 12:21:27;;;;;;;3.58;1.20;;;23.40;86.60;;;;;;5034334;28;20048;-69
2022/09/02 12:23:55;;;;;;;3.22;1.17;;;23.40;85.20;;;;;;5033959;28;20041;-68
2022/09/02 12:26:23;;;;;;;3.72;1.35;;;23.40;86.00;;;;;;5034341;28;20557;-68
2022/09/02 12:28:50;;;;;;;2.88;1.08;;;23.40;85.60;;;;;;5034191;28;20108;-68
2022/09/02 12:31:45;;;;;;;1.45;1.17;;;23.20;85.10;;;;;;5032860;28;20099;-68
2022/09/02 12:34:23;;;;;;;2.22;0.90;;;23.20;85.40;;;;;;5029209;28;20415;-68
2022/09/02 12:37:00;;;;;;;2.83;1.55;;;23.10;84.50;;;;;;5033231;28;20403;-68
2022/09/02 12:39:29;;;;;;;4.93;1.50;;;23.30;85.30;;;;;;5032836;28;20049;-68
2022/09/02 12:42:08;;;;;;;9.40;1.60;;;23.40;85.00;;;;;;5033967;28;20117;-67
2022/09/02 12:45:01;;;;;;;2.67;1.10;;;23.40;85.80;;;;;;5034060;28;20041;-67
2022/09/02 12:47:43;;;;;;;9.05;2.05;;;23.40;85.10;;;;;;5033994;28;20038;-67
2022/09/02 12:50:24;;;;;;;7.15;1.30;;;23.50;85.10;;;;;;5033537;28;20056;-68
2022/09/02 12:52:53;;;;;;;5.00;1.33;;;23.60;85.00;;;;;;5032807;28;20376;-68
2022/09/02 12:55:28;;;;;;;1.55;1.02;;;23.60;84.90;;;;;;5032579;28;20080;-67
2022/09/02 12:58:05;;;;;;;1.70;1.10;;;23.60;84.30;;;;;;5033704;28;20045;-67
2022/09/02 13:00:37;;;;;;;3.10;1.17;;;23.80;85.70;;;;;;5033624;28;20045;-67
2022/09/02 13:03:15;;;;;;;3.97;1.00;;;23.80;84.70;;;;;;5033590;28;20041;-68
2022/09/02 13:06:03;;;;;;;2.53;1.45;;;23.80;83.80;;;;;;5033469;28;20037;-67
2022/09/02 13:08:46;;;;;;;2.85;1.40;;;23.90;83.00;;;;;;5032216;28;20472;-67